Weather History for Hugo, OK

Change the Weather History Date:

Monday, February 18, 2013

  Actual Average Record
Temperature  
Mean Temperature 60 °F -  
Max Temperature 74 °F 58 °F 82 °F (2014)
Min Temperature 46 °F 37 °F 36 °F (2014)
Degree Days  
Heating Degree Days 4    
Growing Degree Days 10 (Base 50)    
Moisture  
Dew Point 41 °F    
Average Humidity 55    
Maximum Humidity 76    
Minimum Humidity 27    
Precipitation  
Precipitation 0.00 in - - ()
Sea Level Pressure  
Sea Level Pressure 29.86 in    
Wind  
Wind Speed 13 mph (SW)    
Max Wind Speed 25 mph    
Max Gust Speed 33 mph    
Visibility 10 miles    
Events Thunderstorm    
Averages and records for this station are not official NWS values.
T = Trace of Precipitation, MM = Missing Value Source: NWS Daily Summary

Daily Weather History Graph

Daily Weather History Graph

Search for Another Location

Airport:

Trip Planner

Search our weather history database for the weather conditions in past years. The results will help you decide how hot, cold, wet, or windy it might be!

Date:

Astronomy

Feb. 18, 2013 Rise Set
Actual Time 7:03 AM CST 6:09 PM CST
Civil Twilight 6:37 AM CST 6:34 PM CST
Nautical Twilight 6:08 AM CST 7:03 PM CST
Astronomical Twilight 5:39 AM CST 7:32 PM CST
Moon 12:03 PM CST (2/18) 1:36 AM CST (2/18)
Length of Visible Light 11h 56m
Length of Day
11h 05m
First Quarter, 58% of the Moon is Illuminated
Feb 18
First Quarter
Feb 25
Full
Mar 4
Last Quarter
Mar 11
New
Mar 19
First Quarter

Hourly Weather History & Observations

Time (CST) Temp. Dew Point Humidity Pressure Visibility Wind Dir Wind Speed Gust Speed Precip Events Conditions
12:15 AM 53.1 °F 33.1 °F 47% 29.92 in 10.0 mi South 10.4 mph 19.6 mph N/A   Clear
12:35 AM 53.1 °F 34.9 °F 50% 29.92 in 10.0 mi South 13.8 mph 17.3 mph N/A   Clear
12:55 AM 53.1 °F 36.5 °F 53% 29.91 in 10.0 mi South 12.7 mph 19.6 mph N/A   Scattered Clouds
1:15 AM 53.1 °F 37.8 °F 56% 29.91 in 10.0 mi South 13.8 mph 18.4 mph N/A   Scattered Clouds
1:35 AM 54.0 °F 38.8 °F 57% 29.91 in 10.0 mi South 10.4 mph 18.4 mph N/A   Overcast
1:55 AM 54.5 °F 40.1 °F 58% 29.91 in 10.0 mi South 11.5 mph 18.4 mph N/A   Overcast
2:15 AM 55.0 °F 40.6 °F 58% 29.90 in 10.0 mi South 12.7 mph 20.7 mph N/A   Overcast
2:35 AM 55.4 °F 41.2 °F 59% 29.90 in 10.0 mi South 12.7 mph 19.6 mph N/A   Overcast
2:55 AM 55.4 °F 42.1 °F 61% 29.88 in 10.0 mi South 16.1 mph 21.9 mph N/A   Overcast
3:15 AM 55.4 °F 42.4 °F 62% 29.87 in 10.0 mi South 13.8 mph 21.9 mph N/A   Overcast
3:35 AM 54.9 °F 42.8 °F 64% 29.87 in 10.0 mi South 13.8 mph 19.6 mph N/A   Overcast
3:55 AM 54.7 °F 43.2 °F 65% 29.86 in 10.0 mi South 12.7 mph 19.6 mph N/A   Overcast
4:15 AM 55.0 °F 43.9 °F 66% 29.85 in 10.0 mi South 12.7 mph 21.9 mph N/A   Overcast
4:35 AM 55.2 °F 44.6 °F 67% 29.85 in 10.0 mi South 13.8 mph 20.7 mph N/A   Overcast
4:55 AM 54.3 °F 44.1 °F 68% 29.85 in 10.0 mi SE 11.5 mph 16.1 mph N/A   Overcast
5:15 AM 54.0 °F 44.2 °F 70% 29.85 in 10.0 mi SSE 11.5 mph 18.4 mph N/A   Overcast
5:55 AM 54.5 °F 45.5 °F 72% 29.83 in 10.0 mi SSE 11.5 mph 18.4 mph N/A   Overcast
6:15 AM 54.7 °F 45.9 °F 72% 29.82 in 10.0 mi South 15.0 mph 21.9 mph N/A   Overcast
6:35 AM 54.9 °F 46.4 °F 73% 29.82 in 10.0 mi South 16.1 mph 21.9 mph N/A   Overcast
6:55 AM 55.0 °F 46.8 °F 74% 29.82 in 10.0 mi South 13.8 mph 21.9 mph N/A   Overcast
7:15 AM 55.0 °F 47.1 °F 75% 29.82 in 10.0 mi SSE 11.5 mph 18.4 mph N/A   Overcast
7:35 AM 55.4 °F 47.3 °F 74% 29.82 in 10.0 mi SSE 9.2 mph 18.4 mph N/A   Overcast
7:55 AM 55.4 °F 47.7 °F 75% 29.82 in 10.0 mi South 12.7 mph 20.7 mph N/A   Overcast
8:15 AM 55.8 °F 48.2 °F 76% 29.82 in 10.0 mi South 13.8 mph 20.7 mph N/A   Overcast
8:35 AM 56.3 °F 48.6 °F 75% 29.81 in 10.0 mi South 13.8 mph 20.7 mph N/A   Overcast
8:55 AM 56.7 °F 49.1 °F 76% 29.81 in 10.0 mi South 9.2 mph 20.7 mph N/A   Overcast
9:15 AM 57.2 °F 49.3 °F 75% 29.81 in 10.0 mi South 11.5 mph 17.3 mph N/A   Overcast
9:35 AM 57.6 °F 50.0 °F 76% 29.81 in 10.0 mi South 5.8 mph 17.3 mph N/A   Overcast
9:55 AM 57.9 °F 50.4 °F 76% 29.80 in 10.0 mi North - - N/A   Overcast
10:15 AM 59.0 °F 51.1 °F 75% 29.79 in 10.0 mi South 9.2 mph 18.4 mph N/A   Overcast
10:35 AM 59.7 °F 51.8 °F 75% 29.78 in 10.0 mi South 16.1 mph 21.9 mph N/A   Overcast
10:55 AM 61.3 °F 52.9 °F 74% 29.78 in 10.0 mi SSW 17.3 mph 27.6 mph N/A   Overcast
11:15 AM 66.0 °F 53.8 °F 65% 29.76 in 10.0 mi North - - N/A   Mostly Cloudy
11:35 AM 66.6 °F 53.8 °F 63% 29.75 in 10.0 mi SSW 19.6 mph - N/A   Scattered Clouds
11:55 AM 67.8 °F 54.0 °F 61% 29.75 in 10.0 mi North - - N/A   Scattered Clouds
12:15 PM 67.3 °F 53.8 °F 62% 29.73 in 10.0 mi SSW 19.6 mph - N/A   Mostly Cloudy
12:35 PM 69.1 °F 52.0 °F 54% 29.72 in 10.0 mi North - - N/A   Overcast
12:55 PM 70.2 °F 51.8 °F 52% 29.72 in 10.0 mi North - - N/A   Overcast
1:15 PM 73.2 °F 51.1 °F 46% 29.71 in 10.0 mi North - - N/A   Mostly Cloudy
1:35 PM 72.9 °F 49.6 °F 44% 29.70 in 10.0 mi North - - N/A   Mostly Cloudy
1:55 PM 71.1 °F 48.7 °F 45% 29.70 in 10.0 mi North - - N/A   Overcast
2:15 PM 73.2 °F 46.9 °F 39% 29.69 in 10.0 mi North - - N/A Thunderstorm Thunderstorm
2:35 PM 74.1 °F 44.4 °F 35% 29.70 in 10.0 mi North - - N/A   Scattered Clouds
2:55 PM 72.0 °F 40.1 °F 32% 29.71 in 10.0 mi North - - N/A   Clear
3:15 PM 71.2 °F 35.6 °F 27% 29.73 in 10.0 mi WNW 25.3 mph 33.4 mph N/A   Clear
3:35 PM 69.6 °F 33.8 °F 27% 29.74 in 10.0 mi WNW 23.0 mph 33.4 mph N/A   Clear
3:55 PM 68.4 °F 37.8 °F 33% 29.75 in 10.0 mi WNW 21.9 mph 33.4 mph N/A   Clear
4:15 PM 66.4 °F 36.3 °F 33% 29.77 in 10.0 mi WNW 18.4 mph 32.2 mph N/A   Clear
4:35 PM 64.4 °F 33.8 °F 32% 29.79 in 10.0 mi NW 23.0 mph 31.1 mph N/A   Clear
5:15 PM 61.7 °F 33.8 °F 35% 29.82 in 10.0 mi NW 25.3 mph 29.9 mph N/A   Clear
5:35 PM 60.8 °F 33.8 °F 36% 29.84 in 10.0 mi NW 18.4 mph 32.2 mph N/A   Clear
5:55 PM 58.8 °F 32.5 °F 37% 29.86 in 10.0 mi NW 20.7 mph 26.5 mph N/A   Clear
6:15 PM 57.4 °F 32.0 °F 38% 29.88 in 10.0 mi NNW 16.1 mph 24.2 mph N/A   Clear
6:55 PM 55.0 °F 32.0 °F 42% 29.93 in 10.0 mi NNW 17.3 mph 24.2 mph N/A   Clear
7:15 PM 54.7 °F 31.8 °F 42% 29.94 in 10.0 mi NNW 13.8 mph 19.6 mph N/A   Clear
7:35 PM 53.8 °F 32.0 °F 44% 29.96 in 10.0 mi NNW 10.4 mph - N/A   Clear
7:55 PM 52.7 °F 32.0 °F 45% 29.97 in 10.0 mi NNW 9.2 mph - N/A   Clear
8:15 PM 51.8 °F 32.0 °F 47% 29.98 in 10.0 mi NNW 6.9 mph - N/A   Clear
8:35 PM 50.5 °F 32.0 °F 49% 30.00 in 10.0 mi NNW 8.1 mph - N/A   Clear
8:55 PM 50.0 °F 32.0 °F 50% 30.01 in 10.0 mi NNW 8.1 mph - N/A   Clear
9:15 PM 49.5 °F 32.0 °F 51% 30.02 in 10.0 mi NNW 8.1 mph - N/A   Clear
9:35 PM 49.1 °F 31.8 °F 51% 30.03 in 10.0 mi NNW 10.4 mph - N/A   Clear
10:15 PM 49.3 °F 30.6 °F 49% 30.06 in 10.0 mi NNW 10.4 mph - N/A   Clear
10:35 PM 48.7 °F 29.7 °F 48% 30.07 in 10.0 mi NNW 9.2 mph - N/A   Clear
10:55 PM 48.2 °F 29.3 °F 48% 30.09 in 10.0 mi NNW 8.1 mph - N/A   Clear
11:15 PM 47.5 °F 29.3 °F 49% 30.10 in 10.0 mi NNW 9.2 mph - N/A   Clear
11:35 PM 47.5 °F 28.9 °F 49% 30.11 in 10.0 mi NNW 9.2 mph - N/A   Clear
11:55 PM 46.6 °F 28.6 °F 50% 30.11 in 10.0 mi NNW 8.1 mph - N/A   Clear